NCAR-RAP Real-Time Weather Data

Output produced by METARs form (31 May 2020  13:32 UTC)
found at http://weather.rap.ucar.edu/surface/
 
RJTT 311300Z 19006KT 9999 FEW020 BKN100 21/15 Q1016 NOSIG RMK 1CU020 7AC100 A3002
 
RJAA 311300Z 13004KT 9999 FEW020 BKN100 18/16 Q1016 NOSIG RMK 1CU020 7AC100 A3003
 
 
RJAH 311300Z 20006KT 9999 FEW025 BKN100 BKN150 19/15 Q1017
 
RJGG 311300Z 07007KT 9999 VCSH FEW020 BKN040 20/15 Q1015 NOSIG
 
RJNK 311300Z 05004KT 9999 FEW030 BKN080 OVC100 20/17 Q1013
 
RJNT 311200Z 16006KT 100V220 9999 FEW025 BKN080 23/13 Q1013
 
RJNW 311000Z VRB01KT CAVOK 20/12 Q1015
 
RJTF 310800Z 17010KT 9999 -SHRA FEW025 BKN100 BKN/// 23/15 Q1017
 
 
 
 
RJTF 310800Z 17010KT 9999 -SHRA FEW025 BKN100 BKN/// 23/15 Q1017
 
 
RJTK 310735Z 15006KT 9999 FEW020 BKN070 BKN120 22/16 Q1017 RMK 1CU020 5AC070 6AC120 A3004
 
 
RJTO 310800Z 18011KT 9999 FEW025 SCT050 BKN070 21/15 Q1017
 
 
RJTT 311300Z 19006KT 9999 FEW020 BKN100 21/15 Q1016 NOSIG RMK 1CU020 7AC100 A3002
 
 
RJTY 311256Z AUTO 20007KT 10SM SCT120 18/14 A3006 RMK AO2 SLP180 T01840143 FZRANO $